createdAt,value
2023-02-24T00:00:30.936Z,40.92
2023-02-24T00:02:59.837Z,40.70
2023-02-24T00:05:27.789Z,41.50
2023-02-24T00:07:55.501Z,42.05
2023-02-24T00:10:23.281Z,42.53
2023-02-24T00:12:51.046Z,41.53
2023-02-24T00:15:20.615Z,41.72
2023-02-24T00:17:48.477Z,43.60
2023-02-24T00:20:16.831Z,45.15
2023-02-24T00:22:45.497Z,44.65
2023-02-24T00:25:14.575Z,43.00
2023-02-24T00:27:42.693Z,43.40
2023-02-24T00:30:11.988Z,44.55
2023-02-24T00:32:40.094Z,39.15
2023-02-24T00:35:09.225Z,39.33
2023-02-24T00:37:37.249Z,40.42
2023-02-24T00:40:12.328Z,43.17
2023-02-24T00:42:40.101Z,43.90
2023-02-24T00:45:10.357Z,43.97
2023-02-24T00:47:40.161Z,42.58
2023-02-24T00:50:09.302Z,42.72
2023-02-24T00:52:37.163Z,43.65
2023-02-24T00:55:14.675Z,39.78
2023-02-24T00:57:42.581Z,37.42
2023-02-24T01:00:15.308Z,39.33
2023-02-24T01:02:44.903Z,41.67
2023-02-24T01:05:13.334Z,39.00
2023-02-24T01:07:41.153Z,40.60
2023-02-24T01:10:12.433Z,40.13
2023-02-24T01:12:49.933Z,42.53
2023-02-24T01:15:19.632Z,43.33
2023-02-24T01:17:47.834Z,42.85
2023-02-24T01:20:19.105Z,44.13
2023-02-24T01:22:48.537Z,40.35
2023-02-24T01:25:17.701Z,38.90
2023-02-24T01:27:45.842Z,38.03
2023-02-24T01:30:16.102Z,42.65
2023-02-24T01:32:44.946Z,43.70
2023-02-24T01:35:14.526Z,42.65
2023-02-24T01:37:43.541Z,43.65
2023-02-24T01:40:18.293Z,42.92
2023-02-24T01:42:47.898Z,42.50
2023-02-24T01:45:17.958Z,43.53
2023-02-24T01:47:47.469Z,40.22
2023-02-24T01:50:17.511Z,40.35
2023-02-24T01:52:47.543Z,41.38
2023-02-24T01:55:20.250Z,39.95
2023-02-24T01:57:49.317Z,40.20
2023-02-24T02:00:38.152Z,41.72
2023-02-24T02:03:09.878Z,39.22
2023-02-24T02:05:39.178Z,41.33
2023-02-24T02:08:09.215Z,42.03
2023-02-24T02:10:40.375Z,39.70
2023-02-24T02:13:08.278Z,38.85
2023-02-24T02:15:38.405Z,40.38
2023-02-24T02:18:12.058Z,37.55
2023-02-24T02:20:40.424Z,37.08
2023-02-24T02:23:15.803Z,34.33
2023-02-24T02:25:43.792Z,34.33
2023-02-24T02:28:21.209Z,39.22
2023-02-24T02:30:49.240Z,37.97
2023-02-24T02:33:27.690Z,38.22
2023-02-24T02:36:07.271Z,40.13
2023-02-24T02:38:38.858Z,40.10
2023-02-24T02:41:25.493Z,39.90
2023-02-24T02:43:59.405Z,39.42
2023-02-24T02:46:35.852Z,38.58
2023-02-24T02:49:24.620Z,37.58
2023-02-24T02:51:53.903Z,39.08
2023-02-24T02:54:30.909Z,40.28
2023-02-24T02:57:01.701Z,39.08
2023-02-24T02:59:31.944Z,39.90
2023-02-24T03:02:11.909Z,40.20
2023-02-24T03:04:42.605Z,39.25
2023-02-24T03:07:11.885Z,39.38
2023-02-24T03:09:42.522Z,39.42
2023-02-24T03:12:13.305Z,41.90
2023-02-24T03:14:44.407Z,36.55
2023-02-24T03:17:17.431Z,32.35
2023-02-24T03:19:49.980Z,37.45
2023-02-24T03:22:23.856Z,35.25
2023-02-24T03:24:52.840Z,35.60
2023-02-24T03:27:30.656Z,37.63
2023-02-24T03:30:09.874Z,38.08
2023-02-24T03:32:44.116Z,38.92
2023-02-24T03:35:15.173Z,38.33
2023-02-24T03:37:43.423Z,36.30
2023-02-24T03:40:14.772Z,38.40
2023-02-24T03:42:45.762Z,37.22
2023-02-24T03:45:13.761Z,36.38
2023-02-24T03:47:42.477Z,38.15
2023-02-24T03:50:14.683Z,36.25
2023-02-24T03:52:47.441Z,36.25
2023-02-24T03:55:21.953Z,37.08
2023-02-24T03:58:04.443Z,37.88
2023-02-24T04:00:37.094Z,38.17
2023-02-24T04:03:25.642Z,34.50
2023-02-24T04:06:14.838Z,36.60
2023-02-24T04:08:45.561Z,36.35
2023-02-24T04:11:18.066Z,36.10
2023-02-24T04:13:48.127Z,28.15
2023-02-24T04:16:29.530Z,38.20
2023-02-24T04:18:59.605Z,41.72
2023-02-24T04:21:32.278Z,41.20
2023-02-24T04:24:06.294Z,43.72
2023-02-24T04:26:36.671Z,43.83
2023-02-24T04:29:04.971Z,45.05
2023-02-24T04:31:34.544Z,42.25
2023-02-24T04:34:02.912Z,43.33
2023-02-24T04:36:38.464Z,43.17
2023-02-24T04:39:07.827Z,42.45
2023-02-24T04:41:36.215Z,41.03
2023-02-24T04:44:05.125Z,41.25
2023-02-24T04:46:32.996Z,40.17
2023-02-24T04:49:02.305Z,39.47
2023-02-24T04:51:32.610Z,38.35
2023-02-24T04:54:00.696Z,35.78
2023-02-24T04:56:29.044Z,36.53
2023-02-24T04:58:57.024Z,38.17
2023-02-24T05:01:24.841Z,38.25
2023-02-24T05:03:53.011Z,39.80
2023-02-24T05:06:20.883Z,40.90
2023-02-24T05:08:48.884Z,38.10
2023-02-24T05:11:18.345Z,36.08
2023-02-24T05:13:47.175Z,35.95
2023-02-24T05:16:16.422Z,39.45
2023-02-24T05:18:44.915Z,41.10
2023-02-24T05:21:32.377Z,42.83
2023-02-24T05:24:07.050Z,43.03
2023-02-24T05:26:37.113Z,43.25
2023-02-24T05:29:05.997Z,41.78
2023-02-24T05:31:34.570Z,45.33
2023-02-24T05:34:04.173Z,44.63
2023-02-24T05:36:39.564Z,44.65
2023-02-24T05:39:08.101Z,42.92
2023-02-24T05:41:38.221Z,46.15
2023-02-24T05:44:11.562Z,45.90
2023-02-24T05:46:40.903Z,44.95
2023-02-24T05:49:23.813Z,45.20
2023-02-24T05:51:56.166Z,45.70
2023-02-24T05:54:31.357Z,44.97
2023-02-24T05:57:03.502Z,43.67
2023-02-24T05:59:33.208Z,44.90
2023-02-24T06:02:07.232Z,45.70
2023-02-24T06:04:39.533Z,42.38
2023-02-24T06:07:19.416Z,40.70
2023-02-24T06:09:50.227Z,42.35
2023-02-24T06:12:19.309Z,44.67
2023-02-24T06:14:47.683Z,45.90
2023-02-24T06:17:19.289Z,46.20
2023-02-24T06:19:52.182Z,51.08
2023-02-24T06:22:24.951Z,46.28
2023-02-24T06:24:57.338Z,44.60
2023-02-24T06:27:28.969Z,42.60
2023-02-24T06:29:57.919Z,42.85
2023-02-24T06:32:27.109Z,41.42
2023-02-24T06:34:55.407Z,42.15
2023-02-24T06:37:23.575Z,43.13
2023-02-24T06:39:51.408Z,42.70
2023-02-24T06:42:20.007Z,42.03
2023-02-24T06:44:47.931Z,42.85
2023-02-24T06:47:18.135Z,41.40
2023-02-24T06:49:46.340Z,42.42
2023-02-24T06:52:19.084Z,43.63
2023-02-24T06:54:48.609Z,42.63
2023-02-24T06:57:18.226Z,42.10
2023-02-24T06:59:46.415Z,43.97
2023-02-24T07:02:17.752Z,45.25
2023-02-24T07:04:45.637Z,44.50
2023-02-24T07:07:17.625Z,42.85
2023-02-24T07:09:45.714Z,43.22
2023-02-24T07:12:15.712Z,43.92
2023-02-24T07:14:44.147Z,77.80
2023-02-24T07:17:14.906Z,51.22
2023-02-24T07:19:42.816Z,45.80
2023-02-24T07:22:10.793Z,46.47
2023-02-24T07:24:46.415Z,45.38
2023-02-24T07:27:22.688Z,46.45
2023-02-24T07:29:53.402Z,47.65
2023-02-24T07:32:25.667Z,47.97
2023-02-24T07:34:53.612Z,47.58
2023-02-24T07:37:23.811Z,48.28
2023-02-24T07:39:52.152Z,45.92
2023-02-24T07:42:20.116Z,45.33
2023-02-24T07:44:52.356Z,46.58
2023-02-24T07:47:23.108Z,45.38
2023-02-24T07:49:51.342Z,45.95
2023-02-24T07:52:19.291Z,43.97
2023-02-24T07:54:47.386Z,45.72
2023-02-24T07:57:15.418Z,46.17
2023-02-24T07:59:48.062Z,47.00
2023-02-24T08:02:19.497Z,48.47
2023-02-24T08:04:51.786Z,46.45
2023-02-24T08:07:25.185Z,46.33
2023-02-24T08:10:10.523Z,46.00
2023-02-24T08:12:43.152Z,45.22
2023-02-24T08:15:24.734Z,47.70
2023-02-24T08:17:59.942Z,71.07
2023-02-24T08:20:30.307Z,49.20
2023-02-24T08:22:58.336Z,49.38
2023-02-24T08:25:35.990Z,50.85
2023-02-24T08:28:09.151Z,52.17
2023-02-24T08:30:39.972Z,49.97
2023-02-24T08:33:09.867Z,48.92
2023-02-24T08:35:45.302Z,46.67
2023-02-24T08:38:18.399Z,49.65
2023-02-24T08:40:54.549Z,49.80
2023-02-24T08:43:29.455Z,48.13
2023-02-24T08:45:57.231Z,54.45
2023-02-24T08:48:26.510Z,52.50
2023-02-24T08:50:55.916Z,53.08
2023-02-24T08:53:29.707Z,52.88
2023-02-24T08:55:58.212Z,55.70
2023-02-24T08:58:29.588Z,54.67
2023-02-24T09:00:59.494Z,55.75
2023-02-24T09:03:28.631Z,56.78
2023-02-24T09:06:00.765Z,52.63
2023-02-24T09:08:32.869Z,55.38
2023-02-24T09:11:01.725Z,62.90
2023-02-24T09:13:33.252Z,96.35
2023-02-24T09:16:02.348Z,61.70
2023-02-24T09:18:30.857Z,56.80
2023-02-24T09:21:19.612Z,55.75
2023-02-24T09:23:47.793Z,56.58
2023-02-24T09:26:15.619Z,58.53
2023-02-24T09:28:55.085Z,58.72
2023-02-24T09:31:41.079Z,59.65
2023-02-24T09:34:18.821Z,55.92
2023-02-24T09:37:01.994Z,57.65
2023-02-24T09:42:07.827Z,56.17
2023-02-24T09:44:35.595Z,57.35
2023-02-24T09:47:51.708Z,55.80
2023-02-24T09:50:55.492Z,55.85
2023-02-24T09:53:18.900Z,59.33
2023-02-24T09:56:07.454Z,58.03
2023-02-24T09:58:44.025Z,58.60
2023-02-24T10:01:33.762Z,70.65
2023-02-24T10:04:18.544Z,62.22
2023-02-24T10:06:52.253Z,59.15
2023-02-24T10:09:23.607Z,59.58
2023-02-24T10:11:55.796Z,58.03
2023-02-24T10:14:25.595Z,60.42
2023-02-24T10:17:20.682Z,59.20
2023-02-24T10:20:14.105Z,59.20
2023-02-24T10:22:51.255Z,59.15
2023-02-24T10:25:36.393Z,55.90
2023-02-24T10:28:13.940Z,53.80
2023-02-24T10:30:47.260Z,55.22
2023-02-24T10:33:25.638Z,73.20
2023-02-24T10:36:09.302Z,52.17
2023-02-24T10:38:38.267Z,55.38
2023-02-24T10:41:06.278Z,51.92
2023-02-24T10:43:45.713Z,53.95
2023-02-24T10:46:38.689Z,54.40
2023-02-24T10:49:11.904Z,53.67
2023-02-24T10:51:45.275Z,52.80
2023-02-24T10:55:05.193Z,53.00
2023-02-24T10:57:47.481Z,51.17
2023-02-24T11:00:52.055Z,52.63
2023-02-24T11:03:41.645Z,49.38
2023-02-24T11:06:52.689Z,52.28
2023-02-24T11:09:28.287Z,45.28
2023-02-24T11:12:15.598Z,45.97
2023-02-24T11:15:11.520Z,44.47
2023-02-24T11:17:46.790Z,46.60
2023-02-24T11:20:49.399Z,48.05
2023-02-24T11:23:20.217Z,47.00
2023-02-24T11:25:49.989Z,45.25
2023-02-24T11:28:38.233Z,45.25
2023-02-24T11:31:14.649Z,45.72
2023-02-24T11:33:45.882Z,66.85
2023-02-24T11:36:33.323Z,49.88
2023-02-24T11:39:20.473Z,44.63
2023-02-24T11:41:53.309Z,46.60
2023-02-24T11:44:21.179Z,57.78
2023-02-24T11:46:57.896Z,48.38
2023-02-24T11:49:25.958Z,45.67
2023-02-24T11:51:53.924Z,45.00
2023-02-24T11:54:23.410Z,47.10
2023-02-24T11:56:54.152Z,47.17
2023-02-24T11:59:40.517Z,46.65
2023-02-24T12:02:14.461Z,47.65
2023-02-24T12:04:46.947Z,47.63
2023-02-24T12:07:35.659Z,49.83
2023-02-24T12:10:17.234Z,47.85
2023-02-24T12:12:49.869Z,48.78
2023-02-24T12:15:26.267Z,47.78
2023-02-24T12:17:58.268Z,46.00
2023-02-24T12:20:45.033Z,50.47
2023-02-24T12:23:34.232Z,48.28
2023-02-24T12:26:09.056Z,44.88
2023-02-24T12:28:53.950Z,43.97
2023-02-24T12:32:00.692Z,41.80
2023-02-24T12:34:47.743Z,42.70
2023-02-24T12:37:27.607Z,43.08
2023-02-24T12:39:56.543Z,41.58
2023-02-24T12:42:29.390Z,40.78
2023-02-24T12:45:13.289Z,39.80
2023-02-24T12:47:41.392Z,39.28
2023-02-24T12:50:27.843Z,39.75
2023-02-24T12:53:02.137Z,39.35
2023-02-24T12:55:34.162Z,40.35
2023-02-24T12:58:22.452Z,40.90
2023-02-24T13:01:02.752Z,36.75
2023-02-24T13:03:33.893Z,38.42
2023-02-24T13:06:20.561Z,37.80
2023-02-24T13:08:51.603Z,36.80
2023-02-24T13:11:27.579Z,37.72
2023-02-24T13:14:25.004Z,36.42
2023-02-24T13:17:03.753Z,37.80
2023-02-24T13:19:32.167Z,36.95
2023-02-24T13:22:06.901Z,36.25
2023-02-24T13:24:35.396Z,39.15
2023-02-24T13:27:22.364Z,36.53
2023-02-24T13:29:50.239Z,38.63
2023-02-24T13:32:26.375Z,38.85
2023-02-24T13:34:54.239Z,38.08
2023-02-24T13:37:48.523Z,37.45
2023-02-24T13:40:19.357Z,38.42
2023-02-24T13:42:59.671Z,57.45
2023-02-24T13:45:34.957Z,58.55
2023-02-24T13:48:09.398Z,37.33
2023-02-24T13:50:41.850Z,36.90
2023-02-24T13:53:12.662Z,33.73
2023-02-24T13:55:55.896Z,35.40
2023-02-24T13:58:24.163Z,34.67
2023-02-24T14:00:57.656Z,33.13
2023-02-24T14:03:27.786Z,34.85
2023-02-24T14:05:57.607Z,35.70
2023-02-24T14:08:33.860Z,34.45
2023-02-24T14:11:04.014Z,36.47
2023-02-24T14:13:34.429Z,33.58
2023-02-24T14:16:06.021Z,35.67
2023-02-24T14:18:34.151Z,34.92
2023-02-24T14:21:03.085Z,36.67
2023-02-24T14:23:34.842Z,34.80
2023-02-24T14:26:03.948Z,34.30
2023-02-24T14:28:33.430Z,34.33
2023-02-24T14:31:04.232Z,32.55
2023-02-24T14:33:36.405Z,33.53
2023-02-24T14:36:14.267Z,33.42
2023-02-24T14:38:42.599Z,34.03
2023-02-24T14:41:37.407Z,32.85
2023-02-24T14:44:24.283Z,32.72
2023-02-24T14:46:53.416Z,32.03
2023-02-24T14:49:23.988Z,32.70
2023-02-24T14:51:55.381Z,33.20
2023-02-24T14:54:28.694Z,32.75
2023-02-24T14:59:24.276Z,32.35
2023-02-24T15:01:54.847Z,32.53
2023-02-24T15:04:31.755Z,32.90
2023-02-24T15:06:59.859Z,31.83
2023-02-24T15:09:35.354Z,32.72
2023-02-24T15:12:22.123Z,32.15
2023-02-24T15:14:51.945Z,32.38
2023-02-24T15:17:21.538Z,32.75
2023-02-24T15:19:57.871Z,32.88
2023-02-24T15:22:29.185Z,33.30
2023-02-24T15:25:17.404Z,46.78
2023-02-24T15:28:02.046Z,40.00
2023-02-24T15:30:33.069Z,33.70
2023-02-24T15:33:07.238Z,36.33
2023-02-24T15:35:37.699Z,34.85
2023-02-24T15:38:05.792Z,35.90
2023-02-24T15:40:33.695Z,35.30
2023-02-24T15:43:10.873Z,35.90
2023-02-24T15:45:42.964Z,34.42
2023-02-24T15:48:21.556Z,33.55
2023-02-24T15:50:52.502Z,33.80
2023-02-24T15:53:28.780Z,33.38
2023-02-24T15:56:00.267Z,32.05
2023-02-24T15:58:40.338Z,33.90
2023-02-24T16:01:27.639Z,33.75
2023-02-24T16:03:58.646Z,31.63
2023-02-24T16:06:28.496Z,33.00
2023-02-24T16:08:57.190Z,32.72
2023-02-24T16:11:29.655Z,33.65
2023-02-24T16:14:00.756Z,33.57
2023-02-24T16:16:28.704Z,33.85
2023-02-24T16:18:57.010Z,35.15
2023-02-24T16:21:24.848Z,34.50
2023-02-24T16:23:52.735Z,33.25
2023-02-24T16:26:40.856Z,34.63
2023-02-24T16:29:11.733Z,33.40
2023-02-24T16:31:40.210Z,33.15
2023-02-24T16:34:08.995Z,34.58
2023-02-24T16:36:36.876Z,37.03
2023-02-24T16:39:05.210Z,35.55
2023-02-24T16:41:33.438Z,35.50
2023-02-24T16:44:01.345Z,34.40
2023-02-24T16:46:33.668Z,36.88
2023-02-24T16:49:01.568Z,35.93
2023-02-24T16:51:31.275Z,37.38
2023-02-24T16:53:59.067Z,34.75
2023-02-24T16:56:26.993Z,36.13
2023-02-24T16:58:55.039Z,32.80
2023-02-24T17:01:23.058Z,50.53
2023-02-24T17:03:54.132Z,33.33
2023-02-24T17:06:23.886Z,31.98
2023-02-24T17:08:52.486Z,32.55
2023-02-24T17:11:21.897Z,29.90
2023-02-24T17:13:49.870Z,33.42
2023-02-24T17:16:17.812Z,37.00
2023-02-24T17:18:45.857Z,39.38
2023-02-24T17:21:14.900Z,94.35
2023-02-24T17:23:42.783Z,37.08
2023-02-24T17:26:12.753Z,34.20
2023-02-24T17:28:40.686Z,32.65
2023-02-24T17:31:08.830Z,34.60
2023-02-24T17:33:36.901Z,36.50
2023-02-24T17:36:04.699Z,36.35
2023-02-24T17:38:34.758Z,36.15
2023-02-24T17:41:02.680Z,36.15
2023-02-24T17:43:30.580Z,46.17
2023-02-24T17:45:58.702Z,48.13
2023-02-24T17:48:26.751Z,52.22
2023-02-24T17:50:54.642Z,48.60
2023-02-24T17:53:23.503Z,37.10
2023-02-24T17:56:02.356Z,52.97
2023-02-24T17:58:31.091Z,52.55
2023-02-24T18:00:59.074Z,48.67
2023-02-24T18:03:26.916Z,36.17
2023-02-24T18:06:08.672Z,37.13
2023-02-24T18:08:37.586Z,36.22
2023-02-24T18:11:05.997Z,35.10
2023-02-24T18:13:34.238Z,44.13
2023-02-24T18:16:02.862Z,124.00
2023-02-24T18:18:30.789Z,72.25
2023-02-24T18:21:05.460Z,79.57
2023-02-24T18:23:34.395Z,41.35
2023-02-24T18:26:03.537Z,38.97
2023-02-24T18:28:32.125Z,42.22
2023-02-24T18:31:03.455Z,39.08
2023-02-24T18:33:31.394Z,38.47
2023-02-24T18:36:02.113Z,39.08
2023-02-24T18:38:30.341Z,37.85
2023-02-24T18:41:02.538Z,40.88
2023-02-24T18:43:31.064Z,41.47
2023-02-24T18:46:00.532Z,38.90
2023-02-24T18:48:30.456Z,38.00
2023-02-24T18:50:59.770Z,38.03
2023-02-24T18:53:29.762Z,42.97
2023-02-24T18:56:05.642Z,57.15
2023-02-24T18:58:33.736Z,48.22
2023-02-24T19:01:02.190Z,72.68
2023-02-24T19:03:30.631Z,43.22
2023-02-24T19:05:58.560Z,47.70
2023-02-24T19:08:27.254Z,43.78
2023-02-24T19:10:55.307Z,42.90
2023-02-24T19:13:24.137Z,41.10
2023-02-24T19:15:52.384Z,39.97
2023-02-24T19:18:20.402Z,40.47
2023-02-24T19:20:48.662Z,39.92
2023-02-24T19:23:16.427Z,41.13
2023-02-24T19:25:44.432Z,42.42
2023-02-24T19:28:13.224Z,42.15
2023-02-24T19:30:41.510Z,45.15
2023-02-24T19:33:09.810Z,43.88
2023-02-24T19:35:41.943Z,48.10
2023-02-24T19:38:13.295Z,43.53
2023-02-24T19:40:42.513Z,42.03
2023-02-24T19:43:10.494Z,42.42
2023-02-24T19:45:42.628Z,44.70
2023-02-24T19:48:11.200Z,43.70
2023-02-24T19:50:42.595Z,44.83
2023-02-24T19:53:10.650Z,44.08
2023-02-24T19:55:38.921Z,48.13
2023-02-24T19:58:07.218Z,50.58
2023-02-24T20:00:35.066Z,57.42
2023-02-24T20:03:03.146Z,52.85
2023-02-24T20:05:31.270Z,55.70
2023-02-24T20:07:59.506Z,54.72
2023-02-24T20:10:27.332Z,54.97
2023-02-24T20:12:55.549Z,50.03
2023-02-24T20:15:23.359Z,49.97
2023-02-24T20:17:51.294Z,46.97
2023-02-24T20:20:19.240Z,46.33
2023-02-24T20:22:47.151Z,45.33
2023-02-24T20:25:15.460Z,45.08
2023-02-24T20:27:43.491Z,45.15
2023-02-24T20:30:11.792Z,44.95
2023-02-24T20:32:39.920Z,46.33
2023-02-24T20:35:08.680Z,43.22
2023-02-24T20:37:37.562Z,43.08
2023-02-24T20:40:05.959Z,44.90
2023-02-24T20:42:33.826Z,42.22
2023-02-24T20:45:01.656Z,44.83
2023-02-24T20:47:34.502Z,44.25
2023-02-24T20:50:03.294Z,45.00
2023-02-24T20:52:31.303Z,43.88
2023-02-24T20:55:00.160Z,44.38
2023-02-24T20:57:31.138Z,42.80
2023-02-24T21:00:04.542Z,43.90
2023-02-24T21:02:32.923Z,46.20
2023-02-24T21:05:01.854Z,44.05
2023-02-24T21:07:31.942Z,46.53
2023-02-24T21:10:00.993Z,44.45
2023-02-24T21:12:28.766Z,44.95
2023-02-24T21:14:56.832Z,46.28
2023-02-24T21:17:28.282Z,43.90
2023-02-24T21:19:57.009Z,48.87
2023-02-24T21:22:24.922Z,108.20
2023-02-24T21:24:52.790Z,49.63
2023-02-24T21:27:21.108Z,44.65
2023-02-24T21:29:51.520Z,42.78
2023-02-24T21:32:20.772Z,46.42
2023-02-24T21:34:48.731Z,44.10
2023-02-24T21:37:20.707Z,43.90
2023-02-24T21:39:49.248Z,45.05
2023-02-24T21:42:17.206Z,45.17
2023-02-24T21:44:45.041Z,44.13
2023-02-24T21:47:13.035Z,46.08
2023-02-24T21:49:41.169Z,59.88
2023-02-24T21:52:11.695Z,45.85
2023-02-24T21:54:39.650Z,45.35
2023-02-24T21:57:07.544Z,43.88
2023-02-24T21:59:35.598Z,47.60
2023-02-24T22:02:03.462Z,45.20
2023-02-24T22:04:31.432Z,46.40
2023-02-24T22:06:59.371Z,48.30
2023-02-24T22:09:27.247Z,47.60
2023-02-24T22:11:55.088Z,46.58
2023-02-24T22:14:23.103Z,46.30
2023-02-24T22:16:51.073Z,49.15
2023-02-24T22:19:20.298Z,47.20
2023-02-24T22:21:48.148Z,49.33
2023-02-24T22:24:16.960Z,47.47
2023-02-24T22:26:45.652Z,48.75
2023-02-24T22:29:13.702Z,49.50
2023-02-24T22:31:43.921Z,48.38
2023-02-24T22:34:13.170Z,49.45
2023-02-24T22:36:41.395Z,47.03
2023-02-24T22:39:09.669Z,45.83
2023-02-24T22:41:38.297Z,47.85
2023-02-24T22:44:06.823Z,47.20
2023-02-24T22:46:36.377Z,47.17
2023-02-24T22:49:04.598Z,48.25
2023-02-24T22:51:32.649Z,48.22
2023-02-24T22:54:00.496Z,48.42
2023-02-24T22:56:29.183Z,48.83
2023-02-24T22:58:57.866Z,47.92
2023-02-24T23:01:27.475Z,50.42
2023-02-24T23:03:55.594Z,50.28
2023-02-24T23:06:26.051Z,52.13
2023-02-24T23:08:54.714Z,55.20
2023-02-24T23:11:30.467Z,58.08
2023-02-24T23:13:59.388Z,63.15
2023-02-24T23:16:29.531Z,61.42
2023-02-24T23:18:58.464Z,61.70
2023-02-24T23:21:27.662Z,60.88
2023-02-24T23:23:56.984Z,63.42
2023-02-24T23:26:35.651Z,60.97
2023-02-24T23:29:04.294Z,65.70
2023-02-24T23:31:33.436Z,65.68
2023-02-24T23:34:07.205Z,65.70
2023-02-24T23:36:36.417Z,68.15
2023-02-24T23:39:05.200Z,65.70
2023-02-24T23:41:34.242Z,64.20
2023-02-24T23:44:02.242Z,65.43
2023-02-24T23:46:30.094Z,66.68
2023-02-24T23:48:58.050Z,65.95
2023-02-24T23:51:27.993Z,61.90
2023-02-24T23:53:59.004Z,60.08
2023-02-24T23:56:27.902Z,57.45
2023-02-24T23:58:57.198Z,54.45
